sensor_id;sensor_type;location;lat;lon;timestamp;temperature;humidity
32706;DHT22;19094;50.972;3.538;2023-04-06T00:00:59;16.00;46.80
32706;DHT22;19094;50.972;3.538;2023-04-06T00:03:25;16.00;46.60
32706;DHT22;19094;50.972;3.538;2023-04-06T00:05:51;16.00;47.00
32706;DHT22;19094;50.972;3.538;2023-04-06T00:08:16;16.00;46.90
32706;DHT22;19094;50.972;3.538;2023-04-06T00:10:42;16.00;47.10
32706;DHT22;19094;50.972;3.538;2023-04-06T00:13:08;16.00;47.10
32706;DHT22;19094;50.972;3.538;2023-04-06T00:15:34;16.00;47.10
32706;DHT22;19094;50.972;3.538;2023-04-06T00:18:00;15.90;47.20
32706;DHT22;19094;50.972;3.538;2023-04-06T00:20:25;15.90;47.40
32706;DHT22;19094;50.972;3.538;2023-04-06T00:22:51;15.90;47.30
32706;DHT22;19094;50.972;3.538;2023-04-06T00:25:17;15.90;47.50
32706;DHT22;19094;50.972;3.538;2023-04-06T00:27:43;15.90;47.60
32706;DHT22;19094;50.972;3.538;2023-04-06T00:30:09;15.90;47.90
32706;DHT22;19094;50.972;3.538;2023-04-06T00:32:35;15.90;47.60
32706;DHT22;19094;50.972;3.538;2023-04-06T00:35:05;15.80;47.80
32706;DHT22;19094;50.972;3.538;2023-04-06T00:37:31;15.80;48.40
32706;DHT22;19094;50.972;3.538;2023-04-06T00:39:57;15.80;47.90
32706;DHT22;19094;50.972;3.538;2023-04-06T00:42:23;15.80;48.00
32706;DHT22;19094;50.972;3.538;2023-04-06T00:44:56;15.80;48.20
32706;DHT22;19094;50.972;3.538;2023-04-06T00:47:23;15.80;48.20
32706;DHT22;19094;50.972;3.538;2023-04-06T00:49:50;15.80;48.40
32706;DHT22;19094;50.972;3.538;2023-04-06T00:52:16;15.70;48.30
32706;DHT22;19094;50.972;3.538;2023-04-06T00:54:42;15.70;48.50
32706;DHT22;19094;50.972;3.538;2023-04-06T00:57:08;15.70;48.50
32706;DHT22;19094;50.972;3.538;2023-04-06T00:59:34;15.70;48.50
32706;DHT22;19094;50.972;3.538;2023-04-06T01:02:00;15.70;48.50
32706;DHT22;19094;50.972;3.538;2023-04-06T01:04:26;15.70;48.60
32706;DHT22;19094;50.972;3.538;2023-04-06T01:06:52;15.70;48.90
32706;DHT22;19094;50.972;3.538;2023-04-06T01:09:18;15.70;48.60
32706;DHT22;19094;50.972;3.538;2023-04-06T01:11:43;15.70;48.70
32706;DHT22;19094;50.972;3.538;2023-04-06T01:14:09;15.60;48.70
32706;DHT22;19094;50.972;3.538;2023-04-06T01:16:36;15.60;48.80
32706;DHT22;19094;50.972;3.538;2023-04-06T01:19:13;15.60;48.90
32706;DHT22;19094;50.972;3.538;2023-04-06T01:21:39;15.70;48.90
32706;DHT22;19094;50.972;3.538;2023-04-06T01:24:06;15.60;49.00
32706;DHT22;19094;50.972;3.538;2023-04-06T01:26:33;15.60;49.40
32706;DHT22;19094;50.972;3.538;2023-04-06T01:28:59;15.60;49.00
32706;DHT22;19094;50.972;3.538;2023-04-06T01:31:25;15.60;49.00
32706;DHT22;19094;50.972;3.538;2023-04-06T01:33:51;15.60;49.00
32706;DHT22;19094;50.972;3.538;2023-04-06T01:36:17;15.60;49.00
32706;DHT22;19094;50.972;3.538;2023-04-06T01:38:43;15.60;48.90
32706;DHT22;19094;50.972;3.538;2023-04-06T01:41:09;15.60;49.00
32706;DHT22;19094;50.972;3.538;2023-04-06T01:43:35;15.60;49.10
32706;DHT22;19094;50.972;3.538;2023-04-06T01:46:00;15.60;49.10
32706;DHT22;19094;50.972;3.538;2023-04-06T01:48:27;15.60;49.20
32706;DHT22;19094;50.972;3.538;2023-04-06T01:50:53;15.50;49.80
32706;DHT22;19094;50.972;3.538;2023-04-06T01:53:19;15.50;49.30
32706;DHT22;19094;50.972;3.538;2023-04-06T01:55:45;15.50;49.30
32706;DHT22;19094;50.972;3.538;2023-04-06T01:58:11;15.50;49.40
32706;DHT22;19094;50.972;3.538;2023-04-06T02:00:36;15.50;49.40
32706;DHT22;19094;50.972;3.538;2023-04-06T02:03:02;15.50;49.60
32706;DHT22;19094;50.972;3.538;2023-04-06T02:05:30;15.50;49.60
32706;DHT22;19094;50.972;3.538;2023-04-06T02:07:56;15.50;49.50
32706;DHT22;19094;50.972;3.538;2023-04-06T02:10:22;15.50;49.60
32706;DHT22;19094;50.972;3.538;2023-04-06T02:12:49;15.40;49.60
32706;DHT22;19094;50.972;3.538;2023-04-06T02:15:15;15.50;49.80
32706;DHT22;19094;50.972;3.538;2023-04-06T02:17:41;15.40;49.80
32706;DHT22;19094;50.972;3.538;2023-04-06T02:20:07;15.30;50.50
32706;DHT22;19094;50.972;3.538;2023-04-06T02:22:34;15.40;50.00
32706;DHT22;19094;50.972;3.538;2023-04-06T02:25:00;15.40;50.00
32706;DHT22;19094;50.972;3.538;2023-04-06T02:27:26;15.40;49.90
32706;DHT22;19094;50.972;3.538;2023-04-06T02:29:52;15.40;49.90
32706;DHT22;19094;50.972;3.538;2023-04-06T02:32:18;15.40;49.90
32706;DHT22;19094;50.972;3.538;2023-04-06T02:34:43;15.40;50.00
32706;DHT22;19094;50.972;3.538;2023-04-06T02:37:09;15.40;50.00
32706;DHT22;19094;50.972;3.538;2023-04-06T02:39:35;15.30;50.00
32706;DHT22;19094;50.972;3.538;2023-04-06T02:42:01;15.30;50.10
32706;DHT22;19094;50.972;3.538;2023-04-06T02:44:26;15.30;50.10
32706;DHT22;19094;50.972;3.538;2023-04-06T02:46:52;15.30;50.10
32706;DHT22;19094;50.972;3.538;2023-04-06T02:49:18;15.30;50.20
32706;DHT22;19094;50.972;3.538;2023-04-06T02:51:43;15.30;50.30
32706;DHT22;19094;50.972;3.538;2023-04-06T02:54:09;15.20;50.40
32706;DHT22;19094;50.972;3.538;2023-04-06T02:56:34;15.20;50.40
32706;DHT22;19094;50.972;3.538;2023-04-06T02:59:00;15.20;50.50
32706;DHT22;19094;50.972;3.538;2023-04-06T03:01:26;15.20;50.30
32706;DHT22;19094;50.972;3.538;2023-04-06T03:03:52;15.20;50.50
32706;DHT22;19094;50.972;3.538;2023-04-06T03:06:17;15.20;50.60
32706;DHT22;19094;50.972;3.538;2023-04-06T03:08:43;15.20;50.70
32706;DHT22;19094;50.972;3.538;2023-04-06T03:11:09;15.20;50.60
32706;DHT22;19094;50.972;3.538;2023-04-06T03:13:35;15.20;50.70
32706;DHT22;19094;50.972;3.538;2023-04-06T03:16:01;15.10;50.70
32706;DHT22;19094;50.972;3.538;2023-04-06T03:18:27;15.10;50.70
32706;DHT22;19094;50.972;3.538;2023-04-06T03:20:52;15.10;50.70
32706;DHT22;19094;50.972;3.538;2023-04-06T03:23:21;15.10;50.80
32706;DHT22;19094;50.972;3.538;2023-04-06T03:25:47;15.10;50.80
32706;DHT22;19094;50.972;3.538;2023-04-06T03:28:12;15.10;50.90
32706;DHT22;19094;50.972;3.538;2023-04-06T03:30:38;15.10;51.00
32706;DHT22;19094;50.972;3.538;2023-04-06T03:33:04;15.10;51.00
32706;DHT22;19094;50.972;3.538;2023-04-06T03:35:30;15.00;51.10
32706;DHT22;19094;50.972;3.538;2023-04-06T03:37:55;15.10;51.10
32706;DHT22;19094;50.972;3.538;2023-04-06T03:40:21;15.00;51.10
32706;DHT22;19094;50.972;3.538;2023-04-06T03:42:46;15.00;51.20
32706;DHT22;19094;50.972;3.538;2023-04-06T03:45:12;15.00;51.20
32706;DHT22;19094;50.972;3.538;2023-04-06T03:47:39;15.00;51.20
32706;DHT22;19094;50.972;3.538;2023-04-06T03:50:05;15.00;51.30
32706;DHT22;19094;50.972;3.538;2023-04-06T03:52:31;15.00;51.30
32706;DHT22;19094;50.972;3.538;2023-04-06T03:54:57;15.00;51.30
32706;DHT22;19094;50.972;3.538;2023-04-06T03:57:22;15.00;51.30
32706;DHT22;19094;50.972;3.538;2023-04-06T03:59:48;15.00;51.40
32706;DHT22;19094;50.972;3.538;2023-04-06T04:02:14;15.00;51.40
32706;DHT22;19094;50.972;3.538;2023-04-06T04:04:40;15.00;51.50
32706;DHT22;19094;50.972;3.538;2023-04-06T04:07:05;15.00;51.60
32706;DHT22;19094;50.972;3.538;2023-04-06T04:09:31;15.00;51.70
32706;DHT22;19094;50.972;3.538;2023-04-06T04:11:56;15.00;51.70
32706;DHT22;19094;50.972;3.538;2023-04-06T04:14:22;15.00;51.80
32706;DHT22;19094;50.972;3.538;2023-04-06T04:16:48;14.90;51.80
32706;DHT22;19094;50.972;3.538;2023-04-06T04:19:13;14.90;51.90
32706;DHT22;19094;50.972;3.538;2023-04-06T04:21:45;14.90;52.00
32706;DHT22;19094;50.972;3.538;2023-04-06T04:24:11;14.90;52.00
32706;DHT22;19094;50.972;3.538;2023-04-06T04:26:37;14.90;52.10
32706;DHT22;19094;50.972;3.538;2023-04-06T04:29:03;14.90;52.30
32706;DHT22;19094;50.972;3.538;2023-04-06T04:31:29;14.80;52.20
32706;DHT22;19094;50.972;3.538;2023-04-06T04:33:55;14.90;52.40
32706;DHT22;19094;50.972;3.538;2023-04-06T04:36:20;14.80;52.40
32706;DHT22;19094;50.972;3.538;2023-04-06T04:38:46;14.90;52.50
32706;DHT22;19094;50.972;3.538;2023-04-06T04:41:12;14.80;52.60
32706;DHT22;19094;50.972;3.538;2023-04-06T04:43:37;14.80;52.70
32706;DHT22;19094;50.972;3.538;2023-04-06T04:46:04;14.80;52.90
32706;DHT22;19094;50.972;3.538;2023-04-06T04:48:30;14.80;53.00
32706;DHT22;19094;50.972;3.538;2023-04-06T04:50:56;14.80;53.10
32706;DHT22;19094;50.972;3.538;2023-04-06T04:53:21;14.80;53.30
32706;DHT22;19094;50.972;3.538;2023-04-06T04:55:47;14.80;53.30
32706;DHT22;19094;50.972;3.538;2023-04-06T04:58:13;14.80;53.50
32706;DHT22;19094;50.972;3.538;2023-04-06T05:00:42;14.70;53.50
32706;DHT22;19094;50.972;3.538;2023-04-06T05:03:08;14.70;53.60
32706;DHT22;19094;50.972;3.538;2023-04-06T05:05:35;14.70;53.70
32706;DHT22;19094;50.972;3.538;2023-04-06T05:08:01;14.70;53.90
32706;DHT22;19094;50.972;3.538;2023-04-06T05:10:27;14.70;53.90
32706;DHT22;19094;50.972;3.538;2023-04-06T05:12:53;14.70;54.00
32706;DHT22;19094;50.972;3.538;2023-04-06T05:15:19;14.60;54.10
32706;DHT22;19094;50.972;3.538;2023-04-06T05:17:44;14.60;54.20
32706;DHT22;19094;50.972;3.538;2023-04-06T05:20:10;14.60;54.50
32706;DHT22;19094;50.972;3.538;2023-04-06T05:22:36;14.60;54.50
32706;DHT22;19094;50.972;3.538;2023-04-06T05:25:02;14.60;54.50
32706;DHT22;19094;50.972;3.538;2023-04-06T05:27:28;14.60;54.70
32706;DHT22;19094;50.972;3.538;2023-04-06T05:29:54;14.60;54.70
32706;DHT22;19094;50.972;3.538;2023-04-06T05:32:20;14.50;54.80
32706;DHT22;19094;50.972;3.538;2023-04-06T05:34:48;14.50;54.80
32706;DHT22;19094;50.972;3.538;2023-04-06T05:37:15;14.50;54.90
32706;DHT22;19094;50.972;3.538;2023-04-06T05:39:41;14.50;55.00
32706;DHT22;19094;50.972;3.538;2023-04-06T05:42:06;14.40;55.30
32706;DHT22;19094;50.972;3.538;2023-04-06T05:44:32;14.50;55.00
32706;DHT22;19094;50.972;3.538;2023-04-06T05:46:58;14.50;55.10
32706;DHT22;19094;50.972;3.538;2023-04-06T05:49:24;14.50;55.20
32706;DHT22;19094;50.972;3.538;2023-04-06T05:51:49;14.40;55.20
32706;DHT22;19094;50.972;3.538;2023-04-06T05:54:15;14.40;55.30
32706;DHT22;19094;50.972;3.538;2023-04-06T05:56:40;14.40;55.30
32706;DHT22;19094;50.972;3.538;2023-04-06T05:59:06;14.40;55.30
32706;DHT22;19094;50.972;3.538;2023-04-06T06:01:33;14.40;55.40
32706;DHT22;19094;50.972;3.538;2023-04-06T06:04:01;14.40;55.40
32706;DHT22;19094;50.972;3.538;2023-04-06T06:06:27;14.30;55.50
32706;DHT22;19094;50.972;3.538;2023-04-06T06:08:54;14.30;55.60
32706;DHT22;19094;50.972;3.538;2023-04-06T06:11:20;14.30;55.70
32706;DHT22;19094;50.972;3.538;2023-04-06T06:13:46;14.30;55.80
32706;DHT22;19094;50.972;3.538;2023-04-06T06:16:12;14.30;55.90
32706;DHT22;19094;50.972;3.538;2023-04-06T06:18:37;14.30;55.80
32706;DHT22;19094;50.972;3.538;2023-04-06T06:21:03;14.30;55.80
32706;DHT22;19094;50.972;3.538;2023-04-06T06:23:29;14.30;55.90
32706;DHT22;19094;50.972;3.538;2023-04-06T06:25:55;14.20;56.00
32706;DHT22;19094;50.972;3.538;2023-04-06T06:28:23;14.20;56.60
32706;DHT22;19094;50.972;3.538;2023-04-06T06:30:50;14.20;56.00
32706;DHT22;19094;50.972;3.538;2023-04-06T06:33:16;14.20;56.10
32706;DHT22;19094;50.972;3.538;2023-04-06T06:35:42;14.20;56.20
32706;DHT22;19094;50.972;3.538;2023-04-06T06:38:08;14.20;56.20
32706;DHT22;19094;50.972;3.538;2023-04-06T06:40:33;14.20;56.30
32706;DHT22;19094;50.972;3.538;2023-04-06T06:42:59;14.20;56.30
32706;DHT22;19094;50.972;3.538;2023-04-06T06:45:25;14.20;56.40
32706;DHT22;19094;50.972;3.538;2023-04-06T06:47:51;14.20;56.30
32706;DHT22;19094;50.972;3.538;2023-04-06T06:50:17;14.20;56.30
32706;DHT22;19094;50.972;3.538;2023-04-06T06:52:43;14.20;56.40
32706;DHT22;19094;50.972;3.538;2023-04-06T06:55:09;14.20;56.30
32706;DHT22;19094;50.972;3.538;2023-04-06T06:57:36;14.20;56.60
32706;DHT22;19094;50.972;3.538;2023-04-06T07:00:02;14.20;56.60
32706;DHT22;19094;50.972;3.538;2023-04-06T07:02:30;14.10;56.60
32706;DHT22;19094;50.972;3.538;2023-04-06T07:04:56;14.10;56.70
32706;DHT22;19094;50.972;3.538;2023-04-06T07:07:22;14.10;56.70
32706;DHT22;19094;50.972;3.538;2023-04-06T07:09:48;14.10;56.70
32706;DHT22;19094;50.972;3.538;2023-04-06T07:12:14;14.10;56.70
32706;DHT22;19094;50.972;3.538;2023-04-06T07:14:41;14.10;56.80
32706;DHT22;19094;50.972;3.538;2023-04-06T07:17:07;14.10;56.90
32706;DHT22;19094;50.972;3.538;2023-04-06T07:19:33;14.10;56.90
32706;DHT22;19094;50.972;3.538;2023-04-06T07:21:58;14.10;56.80
32706;DHT22;19094;50.972;3.538;2023-04-06T07:24:24;14.10;57.00
32706;DHT22;19094;50.972;3.538;2023-04-06T07:26:51;14.10;57.00
32706;DHT22;19094;50.972;3.538;2023-04-06T07:29:17;14.10;57.00
32706;DHT22;19094;50.972;3.538;2023-04-06T07:31:43;14.10;57.20
32706;DHT22;19094;50.972;3.538;2023-04-06T07:34:09;14.10;57.40
32706;DHT22;19094;50.972;3.538;2023-04-06T07:36:35;14.10;57.30
32706;DHT22;19094;50.972;3.538;2023-04-06T07:39:00;14.10;57.40
32706;DHT22;19094;50.972;3.538;2023-04-06T07:41:26;14.10;57.60
32706;DHT22;19094;50.972;3.538;2023-04-06T07:43:52;14.10;57.40
32706;DHT22;19094;50.972;3.538;2023-04-06T07:46:17;14.10;57.60
32706;DHT22;19094;50.972;3.538;2023-04-06T07:48:43;14.10;57.70
32706;DHT22;19094;50.972;3.538;2023-04-06T07:51:09;14.10;57.80
32706;DHT22;19094;50.972;3.538;2023-04-06T07:53:39;14.10;57.80
32706;DHT22;19094;50.972;3.538;2023-04-06T07:56:05;14.00;57.90
32706;DHT22;19094;50.972;3.538;2023-04-06T07:58:31;14.00;58.00
32706;DHT22;19094;50.972;3.538;2023-04-06T08:00:56;14.00;57.90
32706;DHT22;19094;50.972;3.538;2023-04-06T08:03:23;14.00;58.20
32706;DHT22;19094;50.972;3.538;2023-04-06T08:05:51;14.00;58.20
32706;DHT22;19094;50.972;3.538;2023-04-06T08:08:18;14.00;58.00
32706;DHT22;19094;50.972;3.538;2023-04-06T08:10:44;14.00;58.20
32706;DHT22;19094;50.972;3.538;2023-04-06T08:13:10;14.00;58.50
32706;DHT22;19094;50.972;3.538;2023-04-06T08:15:36;14.00;58.30
32706;DHT22;19094;50.972;3.538;2023-04-06T08:18:02;14.00;58.60
32706;DHT22;19094;50.972;3.538;2023-04-06T08:20:28;14.00;58.40
32706;DHT22;19094;50.972;3.538;2023-04-06T08:22:53;14.00;58.70
32706;DHT22;19094;50.972;3.538;2023-04-06T08:25:19;14.00;58.60
32706;DHT22;19094;50.972;3.538;2023-04-06T08:27:45;14.00;58.70
32706;DHT22;19094;50.972;3.538;2023-04-06T08:30:11;14.00;58.70
32706;DHT22;19094;50.972;3.538;2023-04-06T08:32:36;14.00;58.70
32706;DHT22;19094;50.972;3.538;2023-04-06T08:35:02;14.00;58.60
32706;DHT22;19094;50.972;3.538;2023-04-06T08:37:28;14.00;58.70
32706;DHT22;19094;50.972;3.538;2023-04-06T08:39:53;14.00;58.70
32706;DHT22;19094;50.972;3.538;2023-04-06T08:42:20;14.00;58.80
32706;DHT22;19094;50.972;3.538;2023-04-06T08:44:48;14.00;58.90
32706;DHT22;19094;50.972;3.538;2023-04-06T08:47:14;14.00;58.90
32706;DHT22;19094;50.972;3.538;2023-04-06T08:49:40;14.00;59.00
32706;DHT22;19094;50.972;3.538;2023-04-06T08:52:07;14.00;59.10
32706;DHT22;19094;50.972;3.538;2023-04-06T08:54:36;14.00;59.10
32706;DHT22;19094;50.972;3.538;2023-04-06T08:57:03;14.00;59.20
32706;DHT22;19094;50.972;3.538;2023-04-06T08:59:30;14.00;59.30
32706;DHT22;19094;50.972;3.538;2023-04-06T09:01:56;14.00;59.00
32706;DHT22;19094;50.972;3.538;2023-04-06T09:04:22;14.00;59.30
32706;DHT22;19094;50.972;3.538;2023-04-06T09:06:48;13.90;59.20
32706;DHT22;19094;50.972;3.538;2023-04-06T09:09:15;13.90;59.30
32706;DHT22;19094;50.972;3.538;2023-04-06T09:11:48;13.90;59.40
32706;DHT22;19094;50.972;3.538;2023-04-06T09:14:15;13.90;59.60
32706;DHT22;19094;50.972;3.538;2023-04-06T09:16:43;13.90;59.50
32706;DHT22;19094;50.972;3.538;2023-04-06T09:19:09;13.90;59.50
32706;DHT22;19094;50.972;3.538;2023-04-06T09:21:35;13.90;59.70
32706;DHT22;19094;50.972;3.538;2023-04-06T09:24:02;13.90;59.70
32706;DHT22;19094;50.972;3.538;2023-04-06T09:26:29;13.90;59.60
32706;DHT22;19094;50.972;3.538;2023-04-06T09:28:56;13.90;59.50
32706;DHT22;19094;50.972;3.538;2023-04-06T09:33:49;13.90;59.80
32706;DHT22;19094;50.972;3.538;2023-04-06T09:36:15;14.00;60.30
32706;DHT22;19094;50.972;3.538;2023-04-06T09:38:57;14.00;60.60
32706;DHT22;19094;50.972;3.538;2023-04-06T09:41:27;14.10;61.00
32706;DHT22;19094;50.972;3.538;2023-04-06T09:44:07;14.00;60.70
32706;DHT22;19094;50.972;3.538;2023-04-06T09:46:39;14.00;61.20
32706;DHT22;19094;50.972;3.538;2023-04-06T09:49:06;14.10;60.80
32706;DHT22;19094;50.972;3.538;2023-04-06T09:51:57;14.00;60.50
32706;DHT22;19094;50.972;3.538;2023-04-06T09:54:25;14.10;61.90
32706;DHT22;19094;50.972;3.538;2023-04-06T09:57:11;14.00;61.00
32706;DHT22;19094;50.972;3.538;2023-04-06T09:59:54;14.10;61.10
32706;DHT22;19094;50.972;3.538;2023-04-06T10:05:38;14.10;62.00
32706;DHT22;19094;50.972;3.538;2023-04-06T10:08:09;14.20;61.90
32706;DHT22;19094;50.972;3.538;2023-04-06T10:10:36;14.10;61.30
32706;DHT22;19094;50.972;3.538;2023-04-06T10:13:03;14.00;61.50
32706;DHT22;19094;50.972;3.538;2023-04-06T10:15:30;14.00;62.00
32706;DHT22;19094;50.972;3.538;2023-04-06T10:17:57;14.00;62.00
32706;DHT22;19094;50.972;3.538;2023-04-06T10:20:49;14.10;61.80
32706;DHT22;19094;50.972;3.538;2023-04-06T10:25:58;14.10;62.00
32706;DHT22;19094;50.972;3.538;2023-04-06T10:28:25;14.00;62.30
32706;DHT22;19094;50.972;3.538;2023-04-06T10:30:57;14.00;62.50
32706;DHT22;19094;50.972;3.538;2023-04-06T10:33:24;14.10;62.80
32706;DHT22;19094;50.972;3.538;2023-04-06T10:35:50;14.10;62.50
32706;DHT22;19094;50.972;3.538;2023-04-06T10:38:15;14.00;62.40
32706;DHT22;19094;50.972;3.538;2023-04-06T10:40:46;14.00;62.70
32706;DHT22;19094;50.972;3.538;2023-04-06T10:43:22;14.00;62.50
32706;DHT22;19094;50.972;3.538;2023-04-06T10:45:59;14.00;63.20
32706;DHT22;19094;50.972;3.538;2023-04-06T10:48:39;14.00;63.80
32706;DHT22;19094;50.972;3.538;2023-04-06T10:51:13;14.10;63.80
32706;DHT22;19094;50.972;3.538;2023-04-06T10:53:42;14.10;63.40
32706;DHT22;19094;50.972;3.538;2023-04-06T10:56:13;14.10;61.90
32706;DHT22;19094;50.972;3.538;2023-04-06T10:58:43;14.00;64.10
32706;DHT22;19094;50.972;3.538;2023-04-06T11:01:11;14.00;65.00
32706;DHT22;19094;50.972;3.538;2023-04-06T11:03:54;14.10;65.30
32706;DHT22;19094;50.972;3.538;2023-04-06T11:06:27;14.10;66.00
32706;DHT22;19094;50.972;3.538;2023-04-06T11:08:55;14.10;65.10
32706;DHT22;19094;50.972;3.538;2023-04-06T11:11:22;14.10;64.70
32706;DHT22;19094;50.972;3.538;2023-04-06T11:16:31;14.00;65.30
32706;DHT22;19094;50.972;3.538;2023-04-06T11:19:00;14.00;64.80
32706;DHT22;19094;50.972;3.538;2023-04-06T11:21:47;14.00;64.60
32706;DHT22;19094;50.972;3.538;2023-04-06T11:24:18;14.00;65.10
32706;DHT22;19094;50.972;3.538;2023-04-06T11:26:50;14.00;64.60
32706;DHT22;19094;50.972;3.538;2023-04-06T11:29:24;14.00;64.60
32706;DHT22;19094;50.972;3.538;2023-04-06T11:31:52;14.00;64.60
32706;DHT22;19094;50.972;3.538;2023-04-06T11:34:20;14.10;64.60
32706;DHT22;19094;50.972;3.538;2023-04-06T11:36:48;14.00;64.50
32706;DHT22;19094;50.972;3.538;2023-04-06T11:39:24;14.00;65.60
32706;DHT22;19094;50.972;3.538;2023-04-06T11:41:52;14.00;64.40
32706;DHT22;19094;50.972;3.538;2023-04-06T11:47:04;14.20;66.10
32706;DHT22;19094;50.972;3.538;2023-04-06T11:49:31;14.20;64.50
32706;DHT22;19094;50.972;3.538;2023-04-06T11:51:58;14.20;64.50
32706;DHT22;19094;50.972;3.538;2023-04-06T11:54:37;14.30;64.40
32706;DHT22;19094;50.972;3.538;2023-04-06T11:57:04;14.20;65.10
32706;DHT22;19094;50.972;3.538;2023-04-06T11:59:33;14.20;64.30
32706;DHT22;19094;50.972;3.538;2023-04-06T12:02:01;14.30;64.20
32706;DHT22;19094;50.972;3.538;2023-04-06T12:04:27;14.30;63.90
32706;DHT22;19094;50.972;3.538;2023-04-06T12:06:53;14.20;64.30
32706;DHT22;19094;50.972;3.538;2023-04-06T12:09:18;14.10;65.20
32706;DHT22;19094;50.972;3.538;2023-04-06T12:11:44;14.10;65.10
32706;DHT22;19094;50.972;3.538;2023-04-06T12:14:11;14.00;65.30
32706;DHT22;19094;50.972;3.538;2023-04-06T12:16:36;14.10;65.20
32706;DHT22;19094;50.972;3.538;2023-04-06T12:19:02;14.00;64.90
32706;DHT22;19094;50.972;3.538;2023-04-06T12:21:28;14.10;65.10
32706;DHT22;19094;50.972;3.538;2023-04-06T12:23:56;14.00;65.30
32706;DHT22;19094;50.972;3.538;2023-04-06T12:26:22;14.00;65.60
32706;DHT22;19094;50.972;3.538;2023-04-06T12:28:48;14.00;65.60
32706;DHT22;19094;50.972;3.538;2023-04-06T12:31:17;14.10;65.30
32706;DHT22;19094;50.972;3.538;2023-04-06T12:33:46;14.10;65.40
32706;DHT22;19094;50.972;3.538;2023-04-06T12:36:13;14.10;65.60
32706;DHT22;19094;50.972;3.538;2023-04-06T12:38:39;14.10;65.20
32706;DHT22;19094;50.972;3.538;2023-04-06T12:41:06;14.20;65.20
32706;DHT22;19094;50.972;3.538;2023-04-06T12:43:32;14.10;64.90
32706;DHT22;19094;50.972;3.538;2023-04-06T12:45:57;14.10;65.10
32706;DHT22;19094;50.972;3.538;2023-04-06T12:48:25;14.00;65.00
32706;DHT22;19094;50.972;3.538;2023-04-06T12:51:01;14.00;65.50
32706;DHT22;19094;50.972;3.538;2023-04-06T12:53:27;14.10;65.60
32706;DHT22;19094;50.972;3.538;2023-04-06T12:55:55;14.10;65.20
32706;DHT22;19094;50.972;3.538;2023-04-06T12:58:21;14.10;65.30
32706;DHT22;19094;50.972;3.538;2023-04-06T13:00:48;14.10;65.10
32706;DHT22;19094;50.972;3.538;2023-04-06T13:03:14;14.10;65.20
32706;DHT22;19094;50.972;3.538;2023-04-06T13:05:46;14.10;65.50
32706;DHT22;19094;50.972;3.538;2023-04-06T13:08:13;14.10;65.60
32706;DHT22;19094;50.972;3.538;2023-04-06T13:10:46;14.10;65.40
32706;DHT22;19094;50.972;3.538;2023-04-06T13:13:16;14.10;65.60
32706;DHT22;19094;50.972;3.538;2023-04-06T13:15:41;14.10;66.00
32706;DHT22;19094;50.972;3.538;2023-04-06T13:18:08;14.10;65.80
32706;DHT22;19094;50.972;3.538;2023-04-06T13:20:34;14.10;65.60
32706;DHT22;19094;50.972;3.538;2023-04-06T13:22:59;14.20;65.90
32706;DHT22;19094;50.972;3.538;2023-04-06T13:25:25;14.30;66.20
32706;DHT22;19094;50.972;3.538;2023-04-06T13:27:57;14.30;66.10
32706;DHT22;19094;50.972;3.538;2023-04-06T13:30:23;14.20;65.40
32706;DHT22;19094;50.972;3.538;2023-04-06T13:32:49;14.20;65.90
32706;DHT22;19094;50.972;3.538;2023-04-06T13:35:14;14.20;65.20
32706;DHT22;19094;50.972;3.538;2023-04-06T13:37:40;14.10;65.50
32706;DHT22;19094;50.972;3.538;2023-04-06T13:40:07;14.10;65.60
32706;DHT22;19094;50.972;3.538;2023-04-06T13:42:32;14.20;65.50
32706;DHT22;19094;50.972;3.538;2023-04-06T13:45:00;14.10;65.60
32706;DHT22;19094;50.972;3.538;2023-04-06T13:47:26;14.10;66.00
32706;DHT22;19094;50.972;3.538;2023-04-06T13:49:53;14.20;65.50
32706;DHT22;19094;50.972;3.538;2023-04-06T13:52:19;14.20;65.90
32706;DHT22;19094;50.972;3.538;2023-04-06T13:54:45;14.20;65.50
32706;DHT22;19094;50.972;3.538;2023-04-06T13:57:11;14.20;65.90
32706;DHT22;19094;50.972;3.538;2023-04-06T13:59:38;14.30;65.50
32706;DHT22;19094;50.972;3.538;2023-04-06T14:02:06;14.20;65.50
32706;DHT22;19094;50.972;3.538;2023-04-06T14:04:32;14.20;65.60
32706;DHT22;19094;50.972;3.538;2023-04-06T14:06:58;14.20;65.50
32706;DHT22;19094;50.972;3.538;2023-04-06T14:09:24;14.30;65.40
32706;DHT22;19094;50.972;3.538;2023-04-06T14:11:50;14.30;65.40
32706;DHT22;19094;50.972;3.538;2023-04-06T14:14:16;14.30;65.40
32706;DHT22;19094;50.972;3.538;2023-04-06T14:16:42;14.30;65.40
32706;DHT22;19094;50.972;3.538;2023-04-06T14:19:12;14.30;65.40
32706;DHT22;19094;50.972;3.538;2023-04-06T14:21:42;14.30;65.20
32706;DHT22;19094;50.972;3.538;2023-04-06T14:24:09;14.40;65.30
32706;DHT22;19094;50.972;3.538;2023-04-06T14:26:35;14.30;65.40
32706;DHT22;19094;50.972;3.538;2023-04-06T14:29:02;14.40;65.50
32706;DHT22;19094;50.972;3.538;2023-04-06T14:31:27;14.40;65.20
32706;DHT22;19094;50.972;3.538;2023-04-06T14:33:53;14.40;65.40
32706;DHT22;19094;50.972;3.538;2023-04-06T14:36:20;14.40;65.10
32706;DHT22;19094;50.972;3.538;2023-04-06T14:38:45;14.50;65.10
32706;DHT22;19094;50.972;3.538;2023-04-06T14:41:18;14.50;65.00
32706;DHT22;19094;50.972;3.538;2023-04-06T14:43:45;14.50;64.90
32706;DHT22;19094;50.972;3.538;2023-04-06T14:46:11;14.50;64.90
32706;DHT22;19094;50.972;3.538;2023-04-06T14:48:36;14.60;65.00
32706;DHT22;19094;50.972;3.538;2023-04-06T14:51:02;14.60;65.00
32706;DHT22;19094;50.972;3.538;2023-04-06T14:53:28;14.60;64.80
32706;DHT22;19094;50.972;3.538;2023-04-06T14:55:55;14.60;64.60
32706;DHT22;19094;50.972;3.538;2023-04-06T14:58:22;14.60;64.80
32706;DHT22;19094;50.972;3.538;2023-04-06T15:00:48;14.60;64.50
32706;DHT22;19094;50.972;3.538;2023-04-06T15:03:14;14.70;64.50
32706;DHT22;19094;50.972;3.538;2023-04-06T15:05:41;14.70;64.40
32706;DHT22;19094;50.972;3.538;2023-04-06T15:08:07;14.70;64.30
32706;DHT22;19094;50.972;3.538;2023-04-06T15:10:35;14.60;64.20
32706;DHT22;19094;50.972;3.538;2023-04-06T15:13:01;14.60;64.30
32706;DHT22;19094;50.972;3.538;2023-04-06T15:15:27;14.60;63.80
32706;DHT22;19094;50.972;3.538;2023-04-06T15:17:53;14.70;65.60
32706;DHT22;19094;50.972;3.538;2023-04-06T15:20:19;14.70;66.00
32706;DHT22;19094;50.972;3.538;2023-04-06T15:22:44;14.70;65.80
32706;DHT22;19094;50.972;3.538;2023-04-06T15:25:10;14.70;65.60
32706;DHT22;19094;50.972;3.538;2023-04-06T15:27:36;14.70;65.10
32706;DHT22;19094;50.972;3.538;2023-04-06T15:30:02;14.70;65.80
32706;DHT22;19094;50.972;3.538;2023-04-06T15:32:28;14.70;65.10
32706;DHT22;19094;50.972;3.538;2023-04-06T15:34:57;14.70;65.90
32706;DHT22;19094;50.972;3.538;2023-04-06T15:37:22;14.70;65.40
32706;DHT22;19094;50.972;3.538;2023-04-06T15:39:48;14.70;65.20
32706;DHT22;19094;50.972;3.538;2023-04-06T15:42:13;14.70;65.40